< Typhoon 196409 1964 Season Typhoon 196411 >
Typhoon 196410 (GRACE)
General InformationTrack Information on Google Maps || Disaster Info.ResourceGoogle EarthGE AnimationAtom FeedGeoJSON
Detalied Best Track (Time Zone = UTC)
Year Month Day Hour Lat. Long. Pressure (hPa) Wind (kt) Class Image Chart
1964 7 25 18 14.0 140.0 1006 0 2 -- Chart
1964 7 26 00 17.0 142.0 1006 0 2 -- Chart
1964 7 26 06 19.0 142.0 1004 0 2 -- Chart
1964 7 26 12 19.8 140.5 1004 0 2 -- Chart
1964 7 26 18 20.6 138.6 1004 0 2 -- Chart
1964 7 27 00 20.8 137.0 1002 0 9 -- Chart
1964 7 27 06 21.0 135.7 1000 0 9 -- Chart
1964 7 27 12 21.1 134.8 1000 0 9 -- Chart
1964 7 27 18 21.2 134.0 998 0 9 -- Chart
1964 7 28 00 21.3 133.5 998 0 9 -- Chart
1964 7 28 06 21.2 133.0 1000 0 9 -- Chart
1964 7 28 12 20.7 133.4 1000 0 9 -- Chart
1964 7 28 18 21.5 134.5 1000 0 9 -- Chart
1964 7 29 00 21.6 132.8 1000 0 9 -- Chart
1964 7 29 06 21.6 131.5 1000 0 9 -- Chart
1964 7 29 12 21.3 131.0 1000 0 9 -- Chart
1964 7 29 18 20.8 131.4 1000 0 9 -- Chart
1964 7 30 00 21.0 131.8 1002 0 2 -- Chart
1964 7 30 06 21.1 130.8 1000 0 2 -- Chart
1964 7 30 12 20.8 129.5 1000 0 2 -- Chart
1964 7 30 18 20.1 128.4 1000 0 2 -- Chart
1964 7 31 00 19.5 127.9 1000 0 2 -- Chart
1964 7 31 06 19.0 128.4 1000 0 2 -- Chart
1964 7 31 12 19.2 128.8 1000 0 2 -- Chart
1964 7 31 18 19.6 129.0 1000 0 2 -- Chart
1964 8 1 00 20.1 129.2 1000 0 2 -- Chart
1964 8 1 06 21.0 129.6 1000 0 2 -- Chart
1964 8 1 12 21.5 130.2 999 0 2 -- Chart
1964 8 1 18 22.2 130.9 998 0 2 -- Chart
1964 8 2 00 23.0 131.5 998 0 2 -- Chart
1964 8 2 06 24.0 131.6 998 0 2 -- Chart
1964 8 2 12 25.1 131.5 1000 0 2 -- Chart
1964 8 2 18 26.5 131.0 1002 0 2 -- Chart
1964 8 3 00 27.6 130.6 1004 0 2 -- Chart
1964 8 3 06 28.9 130.3 1004 0 2 -- Chart
1964 8 3 12 29.6 130.0 1005 0 2 -- Chart
1964 8 3 18 30.2 129.8 1005 0 2 -- Chart
1964 8 4 00 30.8 129.7 1008 0 2 -- Chart
1964 8 4 06 31.6 129.5 1009 0 2 -- Chart
1964 8 4 12 32.2 129.1 1009 0 2 -- Chart
1964 8 4 18 32.6 129.0 1008 0 2 -- Chart
Japan Meteorological Agency Best Track Data | Correction Date : 1989-06-01
< Typhoon 196409 1964 Season Typhoon 196411 >

Help